Nearby METAR Reports

 

EGFF - Cardiff-Wales Ar, United Kingdom
Distance from station: SE 22km
Updated: 06/07/2020 03:50
Mostly cloudy
Mostly cloudy
 Wind from WNW
Wind: WNW 21 mph , 33 km/h, Gust: 33 mph , 54 km/h
Temperature: 13°C
Dew Point: 9°C
Humidity: 77%
Barometer: 1017 hPa
Clouds: Mostly cloudy
Visibility: 6 miles , 10 km
Cloud details: Mostly cloudy 671 m
Mostly cloudy 945 m
2020/07/06 02:50 EGFF 060250Z AUTO 30018G29KT 9999 BKN022 BKN031 13/09 Q1017